createdAt,value
2023-01-22T00:02:13.932Z,18.70
2023-01-22T00:04:44.576Z,18.70
2023-01-22T00:07:16.731Z,18.70
2023-01-22T00:09:47.483Z,18.80
2023-01-22T00:12:18.156Z,18.80
2023-01-22T00:14:50.275Z,18.90
2023-01-22T00:17:20.976Z,18.90
2023-01-22T00:19:51.811Z,19.00
2023-01-22T00:22:26.237Z,19.10
2023-01-22T00:24:57.111Z,19.20
2023-01-22T00:27:27.966Z,19.20
2023-01-22T00:29:58.720Z,19.30
2023-01-22T00:32:29.641Z,19.40
2023-01-22T00:35:00.327Z,19.40
2023-01-22T00:37:31.073Z,19.50
2023-01-22T00:40:01.788Z,19.50
2023-01-22T00:42:32.654Z,19.60
2023-01-22T00:45:03.367Z,19.60
2023-01-22T00:47:34.197Z,19.70
2023-01-22T00:50:05.457Z,19.70
2023-01-22T00:52:39.017Z,19.70
2023-01-22T00:55:10.847Z,19.80
2023-01-22T00:57:41.643Z,19.90
2023-01-22T01:00:13.786Z,20.00
2023-01-22T01:03:02.829Z,20.00
2023-01-22T01:05:33.506Z,20.10
2023-01-22T01:08:04.319Z,20.10
2023-01-22T01:10:35.227Z,20.20
2023-01-22T01:13:07.521Z,20.30
2023-01-22T01:15:38.236Z,20.40
2023-01-22T01:18:11.591Z,20.50
2023-01-22T01:20:45.153Z,20.60
2023-01-22T01:23:16.686Z,20.70
2023-01-22T01:25:47.388Z,20.80
2023-01-22T01:28:18.094Z,20.90
2023-01-22T01:30:49.165Z,21.00
2023-01-22T01:33:20.039Z,21.10
2023-01-22T01:35:51.363Z,21.20
2023-01-22T01:38:22.108Z,21.20
2023-01-22T01:40:52.908Z,21.30
2023-01-22T01:43:24.145Z,21.40
2023-01-22T01:48:47.246Z,21.50
2023-01-22T01:51:32.740Z,21.50
2023-01-22T01:54:05.710Z,21.60
2023-01-22T01:56:41.997Z,21.70
2023-01-22T01:59:15.309Z,21.70
2023-01-22T02:01:48.669Z,21.80
2023-01-22T02:04:20.663Z,21.90
2023-01-22T02:06:51.804Z,21.90
2023-01-22T02:09:23.367Z,22.00
2023-01-22T02:11:55.459Z,22.00
2023-01-22T02:14:34.631Z,22.10
2023-01-22T02:17:16.999Z,22.10
2023-01-22T02:19:47.905Z,22.20
2023-01-22T02:22:23.680Z,22.30
2023-01-22T02:24:54.991Z,22.30
2023-01-22T02:27:31.346Z,22.30
2023-01-22T02:30:02.245Z,22.40
2023-01-22T02:32:34.588Z,22.50
2023-01-22T02:35:05.912Z,22.50
2023-01-22T02:37:37.936Z,22.60
2023-01-22T02:40:09.609Z,22.70
2023-01-22T02:42:40.400Z,22.70
2023-01-22T02:45:15.232Z,22.80
2023-01-22T02:47:46.021Z,22.80
2023-01-22T02:50:17.361Z,22.90
2023-01-22T02:52:48.742Z,23.00
2023-01-22T02:55:19.649Z,23.10
2023-01-22T02:57:50.502Z,23.20
2023-01-22T03:00:22.308Z,23.20
2023-01-22T03:02:53.587Z,23.30
2023-01-22T03:05:24.690Z,23.30
2023-01-22T03:07:55.716Z,23.40
2023-01-22T03:10:27.010Z,23.40
2023-01-22T03:13:15.950Z,23.50
2023-01-22T03:16:04.285Z,23.60
2023-01-22T03:18:52.690Z,23.70
2023-01-22T03:21:23.648Z,23.80
2023-01-22T03:23:57.881Z,23.90
2023-01-22T03:26:30.020Z,24.00
2023-01-22T03:29:00.708Z,24.10
2023-01-22T03:31:31.846Z,24.20
2023-01-22T03:34:03.555Z,24.30
2023-01-22T03:36:34.991Z,24.40
2023-01-22T03:39:06.060Z,24.50
2023-01-22T03:41:36.870Z,24.60
2023-01-22T03:44:09.343Z,24.70
2023-01-22T03:46:41.368Z,24.80
2023-01-22T03:49:14.108Z,24.90
2023-01-22T03:51:45.524Z,25.10
2023-01-22T03:54:17.827Z,25.20
2023-01-22T03:56:49.336Z,25.30
2023-01-22T03:59:20.219Z,25.40
2023-01-22T04:01:52.114Z,25.50
2023-01-22T04:04:23.180Z,25.60
2023-01-22T04:06:54.140Z,25.70
2023-01-22T04:09:25.052Z,25.80
2023-01-22T04:11:56.083Z,25.90
2023-01-22T04:14:29.929Z,26.00
2023-01-22T04:17:00.825Z,26.10
2023-01-22T04:19:31.949Z,26.30
2023-01-22T04:22:02.658Z,26.40
2023-01-22T04:24:33.730Z,26.40
2023-01-22T04:27:04.551Z,26.60
2023-01-22T04:29:35.493Z,26.70
2023-01-22T04:32:06.760Z,26.80
2023-01-22T04:34:37.983Z,26.90
2023-01-22T04:37:09.008Z,27.00
2023-01-22T04:39:39.804Z,27.00
2023-01-22T04:42:11.779Z,27.00
2023-01-22T04:44:42.444Z,27.10
2023-01-22T04:47:13.877Z,27.20
2023-01-22T04:49:44.719Z,27.30
2023-01-22T04:52:15.814Z,27.40
2023-01-22T04:54:47.428Z,27.40
2023-01-22T04:57:18.726Z,27.50
2023-01-22T04:59:50.336Z,27.60
2023-01-22T05:02:23.958Z,27.70
2023-01-22T05:04:54.944Z,27.80
2023-01-22T05:07:26.093Z,27.90
2023-01-22T05:09:56.817Z,28.00
2023-01-22T05:12:35.986Z,28.10
2023-01-22T05:15:22.475Z,28.20
2023-01-22T05:17:39.710Z,28.30
2023-01-22T05:20:11.619Z,28.40
2023-01-22T05:22:42.625Z,28.40
2023-01-22T05:25:13.896Z,28.50
2023-01-22T05:27:44.839Z,28.60
2023-01-22T05:30:16.668Z,28.60
2023-01-22T05:32:48.692Z,28.60
2023-01-22T05:35:19.484Z,28.60
2023-01-22T05:37:50.179Z,28.70
2023-01-22T05:40:21.267Z,28.70
2023-01-22T05:42:52.531Z,28.80
2023-01-22T05:45:23.767Z,28.90
2023-01-22T05:47:57.565Z,28.90
2023-01-22T05:50:29.668Z,28.90
2023-01-22T05:53:00.875Z,29.00
2023-01-22T05:55:31.905Z,29.10
2023-01-22T05:58:03.400Z,29.10
2023-01-22T06:00:34.792Z,29.20
2023-01-22T06:03:05.940Z,29.20
2023-01-22T06:05:37.241Z,29.20
2023-01-22T06:08:08.612Z,29.20
2023-01-22T06:10:39.893Z,29.20
2023-01-22T06:13:11.329Z,29.30
2023-01-22T06:15:42.660Z,29.30
2023-01-22T06:18:13.854Z,29.40
2023-01-22T06:20:44.936Z,29.40
2023-01-22T06:23:16.589Z,29.50
2023-01-22T06:25:48.721Z,29.60
2023-01-22T06:28:19.943Z,29.70
2023-01-22T06:30:51.575Z,29.70
2023-01-22T06:36:11.213Z,29.90
2023-01-22T06:38:42.168Z,29.90
2023-01-22T06:41:13.029Z,29.90
2023-01-22T06:43:43.838Z,29.90
2023-01-22T06:46:15.678Z,30.00
2023-01-22T06:48:49.768Z,30.00
2023-01-22T06:51:19.944Z,30.10
2023-01-22T06:53:51.014Z,30.10
2023-01-22T06:56:23.175Z,30.10
2023-01-22T06:58:53.986Z,30.10
2023-01-22T07:01:25.280Z,30.10
2023-01-22T07:03:56.799Z,30.20
2023-01-22T07:06:30.416Z,30.20
2023-01-22T07:11:51.531Z,30.20
2023-01-22T07:14:36.205Z,30.20
2023-01-22T07:16:54.629Z,30.20
2023-01-22T07:19:30.992Z,30.10
2023-01-22T07:22:04.766Z,30.20
2023-01-22T07:24:38.159Z,30.30
2023-01-22T07:27:09.037Z,30.20
2023-01-22T07:29:40.013Z,30.20
2023-01-22T07:32:10.704Z,30.30
2023-01-22T07:34:41.869Z,30.30
2023-01-22T07:37:13.132Z,30.30
2023-01-22T07:39:48.818Z,30.30
2023-01-22T07:42:20.870Z,30.30
2023-01-22T07:44:51.571Z,30.30
2023-01-22T07:47:23.857Z,30.30
2023-01-22T07:49:54.544Z,30.20
2023-01-22T07:52:25.223Z,30.20
2023-01-22T07:54:55.939Z,30.20
2023-01-22T07:57:26.811Z,30.20
2023-01-22T07:59:58.808Z,30.20
2023-01-22T08:02:29.640Z,30.10
2023-01-22T08:05:00.431Z,30.10
2023-01-22T08:07:31.641Z,30.00
2023-01-22T08:10:02.469Z,30.00
2023-01-22T08:12:33.280Z,29.90
2023-01-22T08:15:03.947Z,29.90
2023-01-22T08:17:38.971Z,29.90
2023-01-22T08:20:10.895Z,29.90
2023-01-22T08:22:41.637Z,29.90
2023-01-22T08:25:13.117Z,29.90
2023-01-22T08:27:44.920Z,29.80
2023-01-22T08:30:17.586Z,29.80
2023-01-22T08:32:49.015Z,29.80
2023-01-22T08:35:20.211Z,29.70
2023-01-22T08:37:51.324Z,29.70
2023-01-22T08:40:26.785Z,29.70
2023-01-22T08:42:58.936Z,29.70
2023-01-22T08:45:41.475Z,29.70
2023-01-22T08:48:12.146Z,29.70
2023-01-22T08:50:45.693Z,29.70
2023-01-22T08:53:19.276Z,29.70
2023-01-22T08:55:51.828Z,29.70
2023-01-22T08:58:23.330Z,29.70
2023-01-22T09:00:55.879Z,29.70
2023-01-22T09:03:26.918Z,29.60
2023-01-22T09:05:59.172Z,29.60
2023-01-22T09:08:30.153Z,29.60
2023-01-22T09:11:00.959Z,29.60
2023-01-22T09:13:31.857Z,29.60
2023-01-22T09:16:02.771Z,29.60
2023-01-22T09:18:34.095Z,29.50
2023-01-22T09:21:05.442Z,29.50
2023-01-22T09:23:36.235Z,29.50
2023-01-22T09:26:07.315Z,29.50
2023-01-22T09:28:38.226Z,29.40
2023-01-22T09:31:09.341Z,29.40
2023-01-22T09:33:40.157Z,29.40
2023-01-22T09:36:13.401Z,29.30
2023-01-22T09:41:44.079Z,29.40
2023-01-22T09:44:17.328Z,29.30
2023-01-22T09:46:54.647Z,29.30
2023-01-22T09:49:31.831Z,29.20
2023-01-22T09:52:08.309Z,29.10
2023-01-22T09:54:41.869Z,29.10
2023-01-22T09:57:30.642Z,29.00
2023-01-22T09:59:50.693Z,28.90
2023-01-22T10:02:30.310Z,28.90
2023-01-22T10:05:18.579Z,28.80
2023-01-22T10:07:57.951Z,28.70
2023-01-22T10:10:30.199Z,28.70
2023-01-22T10:13:18.575Z,28.60
2023-01-22T10:15:50.554Z,28.60
2023-01-22T10:18:26.530Z,28.50
2023-01-22T10:20:58.908Z,28.50
2023-01-22T10:23:30.411Z,28.40
2023-01-22T10:26:09.376Z,28.40
2023-01-22T10:28:40.295Z,28.30
2023-01-22T10:31:25.482Z,28.20
2023-01-22T10:34:01.868Z,28.20
2023-01-22T10:36:33.646Z,28.10
2023-01-22T10:39:15.591Z,28.00
2023-01-22T10:41:48.491Z,28.00
2023-01-22T10:44:28.048Z,27.90
2023-01-22T10:47:00.431Z,27.90
2023-01-22T10:49:31.363Z,27.80
2023-01-22T10:52:04.066Z,27.70
2023-01-22T10:54:37.336Z,27.60
2023-01-22T10:57:10.584Z,27.60
2023-01-22T10:59:41.601Z,27.50
2023-01-22T11:02:17.623Z,27.50
2023-01-22T11:04:48.537Z,27.40
2023-01-22T11:07:32.586Z,27.30
2023-01-22T11:10:26.245Z,27.30
2023-01-22T11:13:20.665Z,27.20
2023-01-22T11:15:57.495Z,27.20
2023-01-22T11:18:43.098Z,27.10
2023-01-22T11:21:22.181Z,27.10
2023-01-22T11:24:07.452Z,27.00
2023-01-22T11:27:02.036Z,27.10
2023-01-22T11:29:41.233Z,27.00
2023-01-22T11:32:36.584Z,26.80
2023-01-22T11:35:15.675Z,26.90
2023-01-22T11:40:39.416Z,26.80
2023-01-22T11:43:21.925Z,26.80
2023-01-22T11:46:13.440Z,26.70
2023-01-22T11:48:52.448Z,26.70
2023-01-22T11:56:59.326Z,26.40
2023-01-22T12:02:46.229Z,26.30
2023-01-22T12:05:25.304Z,26.30
2023-01-22T12:08:11.607Z,26.30
2023-01-22T12:10:51.997Z,26.30
2023-01-22T12:13:41.824Z,26.20
2023-01-22T12:16:18.325Z,26.20
2023-01-22T12:19:01.072Z,26.20
2023-01-22T12:21:42.527Z,26.10
2023-01-22T12:24:24.529Z,26.10
2023-01-22T12:27:12.330Z,26.10
2023-01-22T12:29:53.880Z,26.00
2023-01-22T12:32:26.333Z,26.00
2023-01-22T12:35:06.724Z,25.90
2023-01-22T12:37:51.841Z,25.90
2023-01-22T12:40:52.764Z,25.90
2023-01-22T12:43:26.111Z,25.90
2023-01-22T12:46:03.526Z,25.90
2023-01-22T12:49:05.802Z,25.90
2023-01-22T12:51:45.637Z,25.90
2023-01-22T12:54:36.260Z,25.90
2023-01-22T12:57:26.967Z,25.90
2023-01-22T13:00:15.490Z,25.80
2023-01-22T13:02:52.640Z,25.80
2023-01-22T13:05:33.070Z,25.70
2023-01-22T13:08:32.722Z,25.60
2023-01-22T13:11:05.862Z,25.60
2023-01-22T13:13:39.160Z,25.60
2023-01-22T13:16:21.870Z,25.50
2023-01-22T13:19:00.474Z,25.50
2023-01-22T13:21:33.386Z,25.50
2023-01-22T13:24:07.010Z,25.40
2023-01-22T13:26:41.876Z,25.40
2023-01-22T13:29:31.146Z,25.40
2023-01-22T13:32:06.199Z,25.40
2023-01-22T13:34:36.809Z,25.30
2023-01-22T13:37:09.399Z,25.30
2023-01-22T13:39:43.666Z,25.30
2023-01-22T13:42:21.908Z,25.20
2023-01-22T13:44:54.278Z,25.20
2023-01-22T13:47:35.896Z,25.20
2023-01-22T13:50:07.643Z,25.20
2023-01-22T13:52:38.839Z,25.20
2023-01-22T13:55:16.468Z,25.10
2023-01-22T13:57:51.862Z,25.10
2023-01-22T14:00:37.516Z,25.10
2023-01-22T14:03:27.359Z,25.10
2023-01-22T14:06:09.827Z,25.00
2023-01-22T14:08:51.873Z,25.00
2023-01-22T14:11:24.595Z,24.90
2023-01-22T14:13:56.193Z,24.80
2023-01-22T14:16:28.566Z,24.70
2023-01-22T14:19:06.065Z,24.60
2023-01-22T14:21:42.192Z,24.60
2023-01-22T14:24:13.354Z,24.60
2023-01-22T14:26:44.378Z,24.60
2023-01-22T14:32:06.690Z,24.60
2023-01-22T14:34:37.676Z,24.60
2023-01-22T14:37:08.868Z,24.60
2023-01-22T14:39:40.018Z,24.60
2023-01-22T14:42:11.910Z,24.60
2023-01-22T14:44:44.546Z,24.50
2023-01-22T14:47:18.283Z,24.40
2023-01-22T14:49:48.526Z,24.40
2023-01-22T14:52:19.416Z,24.40
2023-01-22T14:54:50.279Z,24.30
2023-01-22T14:57:20.977Z,24.30
2023-01-22T14:59:52.278Z,24.20
2023-01-22T15:02:23.141Z,24.20
2023-01-22T15:05:00.641Z,24.20
2023-01-22T15:07:30.602Z,24.10
2023-01-22T15:10:02.172Z,24.10
2023-01-22T15:12:32.982Z,24.10
2023-01-22T15:15:03.907Z,24.00
2023-01-22T15:17:35.947Z,24.00
2023-01-22T15:20:07.158Z,24.00
2023-01-22T15:22:38.002Z,24.00
2023-01-22T15:25:10.786Z,24.00
2023-01-22T15:27:44.739Z,24.00
2023-01-22T15:30:18.841Z,24.00
2023-01-22T15:32:52.259Z,23.90
2023-01-22T15:35:23.061Z,23.90
2023-01-22T15:37:53.854Z,23.90
2023-01-22T15:40:24.579Z,23.90
2023-01-22T15:42:55.519Z,23.80
2023-01-22T15:45:27.038Z,23.80
2023-01-22T15:47:58.213Z,23.80
2023-01-22T15:50:35.619Z,23.70
2023-01-22T15:53:08.471Z,23.70
2023-01-22T15:55:39.512Z,23.70
2023-01-22T15:58:11.876Z,23.70
2023-01-22T16:00:42.667Z,23.60
2023-01-22T16:03:16.935Z,23.50
2023-01-22T16:05:47.004Z,23.40
2023-01-22T16:08:20.510Z,23.40
2023-01-22T16:10:55.136Z,23.30
2023-01-22T16:13:26.225Z,23.30
2023-01-22T16:16:02.219Z,23.20
2023-01-22T16:18:35.425Z,23.10
2023-01-22T16:21:09.002Z,23.10
2023-01-22T16:23:41.507Z,23.10
2023-01-22T16:26:15.905Z,23.10
2023-01-22T16:28:48.313Z,23.20
2023-01-22T16:31:24.726Z,23.10
2023-01-22T16:33:57.061Z,23.10
2023-01-22T16:36:32.674Z,23.10
2023-01-22T16:39:03.867Z,23.00
2023-01-22T16:41:36.521Z,23.00
2023-01-22T16:44:12.599Z,23.00
2023-01-22T16:46:46.218Z,22.90
2023-01-22T16:49:22.693Z,22.90
2023-01-22T16:51:56.139Z,22.90
2023-01-22T16:54:33.466Z,22.90
2023-01-22T16:57:16.395Z,22.80
2023-01-22T16:59:49.237Z,22.80
2023-01-22T17:02:21.431Z,22.90
2023-01-22T17:04:52.550Z,22.80
2023-01-22T17:07:33.171Z,22.80
2023-01-22T17:09:55.955Z,22.80
2023-01-22T17:12:29.904Z,22.80
2023-01-22T17:15:07.052Z,22.90
2023-01-22T17:17:38.058Z,22.80
2023-01-22T17:20:12.581Z,22.80
2023-01-22T17:22:43.473Z,22.80
2023-01-22T17:25:14.624Z,22.80
2023-01-22T17:27:45.581Z,22.80
2023-01-22T17:30:17.886Z,22.80
2023-01-22T17:32:49.173Z,22.70
2023-01-22T17:35:20.575Z,22.70
2023-01-22T17:37:51.571Z,22.60
2023-01-22T17:40:22.359Z,22.60
2023-01-22T17:42:54.158Z,22.60
2023-01-22T17:45:25.071Z,22.50
2023-01-22T17:47:57.432Z,22.40
2023-01-22T17:50:28.568Z,22.40
2023-01-22T17:52:59.632Z,22.30
2023-01-22T17:55:31.907Z,22.20
2023-01-22T17:58:02.824Z,22.20
2023-01-22T18:00:34.027Z,22.10
2023-01-22T18:03:04.981Z,22.10
2023-01-22T18:05:36.572Z,22.00
2023-01-22T18:08:07.813Z,21.90
2023-01-22T18:10:40.177Z,21.90
2023-01-22T18:13:10.911Z,21.80
2023-01-22T18:15:41.835Z,21.80
2023-01-22T18:18:12.719Z,21.70
2023-01-22T18:20:45.539Z,21.70
2023-01-22T18:23:17.596Z,21.60
2023-01-22T18:25:55.444Z,21.60
2023-01-22T18:28:28.275Z,21.50
2023-01-22T18:31:00.466Z,21.50
2023-01-22T18:33:31.758Z,21.50
2023-01-22T18:36:02.594Z,21.50
2023-01-22T18:38:33.635Z,21.50
2023-01-22T18:41:09.599Z,21.50
2023-01-22T18:43:40.689Z,21.50
2023-01-22T18:46:15.638Z,21.60
2023-01-22T18:48:46.906Z,21.60
2023-01-22T18:51:17.721Z,21.60
2023-01-22T18:53:48.657Z,21.50
2023-01-22T18:56:19.655Z,21.50
2023-01-22T18:58:50.976Z,21.50
2023-01-22T19:01:35.801Z,21.40
2023-01-22T19:04:09.185Z,21.40
2023-01-22T19:06:41.278Z,21.30
2023-01-22T19:09:32.353Z,21.30
2023-01-22T19:12:03.227Z,21.30
2023-01-22T19:14:33.978Z,21.30
2023-01-22T19:17:06.148Z,21.20
2023-01-22T19:19:36.958Z,21.20
2023-01-22T19:22:07.645Z,21.20
2023-01-22T19:24:38.579Z,21.20
2023-01-22T19:27:09.337Z,21.20
2023-01-22T19:29:40.260Z,21.20
2023-01-22T19:32:12.721Z,21.10
2023-01-22T19:35:02.777Z,21.10
2023-01-22T19:37:33.845Z,21.10
2023-01-22T19:40:04.660Z,21.00
2023-01-22T19:42:35.403Z,21.10
2023-01-22T19:45:06.748Z,21.10
2023-01-22T19:47:37.472Z,21.10
2023-01-22T19:50:09.516Z,21.10
2023-01-22T19:52:40.190Z,21.00
2023-01-22T19:55:11.576Z,21.00
2023-01-22T19:57:42.267Z,21.00
2023-01-22T20:00:14.330Z,21.00
2023-01-22T20:02:45.123Z,21.00
2023-01-22T20:05:17.687Z,21.00
2023-01-22T20:07:49.486Z,20.90
2023-01-22T20:10:20.398Z,20.90
2023-01-22T20:12:52.585Z,20.90
2023-01-22T20:15:23.645Z,20.90
2023-01-22T20:17:55.652Z,20.90
2023-01-22T20:20:27.173Z,20.80
2023-01-22T20:22:57.923Z,20.80
2023-01-22T20:25:30.211Z,20.90
2023-01-22T20:28:01.633Z,20.80
2023-01-22T20:30:32.559Z,20.90
2023-01-22T20:33:03.373Z,20.90
2023-01-22T20:35:34.199Z,20.90
2023-01-22T20:38:05.013Z,21.00
2023-01-22T20:40:37.207Z,20.90
2023-01-22T20:43:08.548Z,20.90
2023-01-22T20:45:39.313Z,20.80
2023-01-22T20:48:10.217Z,20.70
2023-01-22T20:50:44.535Z,20.60
2023-01-22T20:53:15.307Z,20.60
2023-01-22T20:55:46.027Z,20.60
2023-01-22T20:58:16.833Z,20.70
2023-01-22T21:00:47.588Z,20.70
2023-01-22T21:03:18.256Z,20.60
2023-01-22T21:05:49.045Z,20.60
2023-01-22T21:08:19.743Z,20.60
2023-01-22T21:11:01.611Z,20.60
2023-01-22T21:13:32.484Z,20.60
2023-01-22T21:16:14.360Z,20.60
2023-01-22T21:18:47.580Z,20.60
2023-01-22T21:21:20.833Z,20.60
2023-01-22T21:23:53.778Z,20.60
2023-01-22T21:26:26.872Z,20.60
2023-01-22T21:28:59.965Z,20.60
2023-01-22T21:31:31.938Z,20.60
2023-01-22T21:34:05.087Z,20.60
2023-01-22T21:36:41.807Z,20.50
2023-01-22T21:39:15.097Z,20.50
2023-01-22T21:41:45.949Z,20.50
2023-01-22T21:44:36.722Z,20.40
2023-01-22T21:47:07.815Z,20.40
2023-01-22T21:49:38.605Z,20.40
2023-01-22T21:52:10.554Z,20.40
2023-01-22T21:54:45.355Z,20.40
2023-01-22T21:57:18.435Z,20.40
2023-01-22T21:59:53.760Z,20.30
2023-01-22T22:02:24.617Z,20.30
2023-01-22T22:04:55.387Z,20.30
2023-01-22T22:07:26.188Z,20.30
2023-01-22T22:09:56.903Z,20.40
2023-01-22T22:12:29.063Z,20.30
2023-01-22T22:14:59.914Z,20.30
2023-01-22T22:17:30.600Z,20.30
2023-01-22T22:20:01.334Z,20.40
2023-01-22T22:22:32.632Z,20.40
2023-01-22T22:25:03.372Z,20.40
2023-01-22T22:27:34.142Z,20.50
2023-01-22T22:30:04.927Z,20.50
2023-01-22T22:32:36.015Z,20.60
2023-01-22T22:35:07.264Z,20.60
2023-01-22T22:37:38.337Z,20.60
2023-01-22T22:40:11.919Z,20.50
2023-01-22T22:42:42.613Z,20.50
2023-01-22T22:45:13.749Z,20.50
2023-01-22T22:47:44.618Z,20.50
2023-01-22T22:50:15.325Z,20.50
2023-01-22T22:52:46.689Z,20.40
2023-01-22T22:55:17.550Z,20.50
2023-01-22T22:57:49.627Z,20.50
2023-01-22T23:00:22.057Z,20.40
2023-01-22T23:02:52.893Z,20.50
2023-01-22T23:05:23.675Z,20.40
2023-01-22T23:07:54.678Z,20.40
2023-01-22T23:10:31.241Z,20.40
2023-01-22T23:13:03.957Z,20.40
2023-01-22T23:15:35.516Z,20.40
2023-01-22T23:18:06.415Z,20.40
2023-01-22T23:20:37.741Z,20.40
2023-01-22T23:23:08.643Z,20.30
2023-01-22T23:25:39.346Z,20.20
2023-01-22T23:28:10.140Z,20.20
2023-01-22T23:30:41.129Z,20.10
2023-01-22T23:33:12.258Z,20.10
2023-01-22T23:35:43.026Z,20.10
2023-01-22T23:38:14.314Z,20.00
2023-01-22T23:40:45.203Z,20.00
2023-01-22T23:43:16.012Z,20.00
2023-01-22T23:45:46.728Z,20.00
2023-01-22T23:48:17.535Z,20.00
2023-01-22T23:50:52.982Z,19.90
2023-01-22T23:53:24.349Z,19.90
2023-01-22T23:56:02.808Z,20.00
2023-01-22T23:58:33.971Z,19.90
